sensor_id;sensor_type;location;lat;lon;timestamp;P1;durP1;ratioP1;P2;durP2;ratioP2
7013;SDS011;3547;50.774;12.918;2023-05-14T00:04:45;2.77;;;2.57;;
7013;SDS011;3547;50.774;12.918;2023-05-14T00:07:33;3.40;;;3.10;;
7013;SDS011;3547;50.774;12.918;2023-05-14T00:10:42;3.10;;;2.60;;
7013;SDS011;3547;50.774;12.918;2023-05-14T00:13:09;4.63;;;2.87;;
7013;SDS011;3547;50.774;12.918;2023-05-14T00:16:37;3.33;;;2.70;;
7013;SDS011;3547;50.774;12.918;2023-05-14T00:19:44;2.97;;;2.67;;
7013;SDS011;3547;50.774;12.918;2023-05-14T00:23:08;3.23;;;2.93;;
7013;SDS011;3547;50.774;12.918;2023-05-14T00:25:35;3.27;;;2.70;;
7013;SDS011;3547;50.774;12.918;2023-05-14T00:28:02;3.30;;;2.70;;
7013;SDS011;3547;50.774;12.918;2023-05-14T00:30:28;3.90;;;3.03;;
7013;SDS011;3547;50.774;12.918;2023-05-14T00:32:55;3.67;;;2.70;;
7013;SDS011;3547;50.774;12.918;2023-05-14T00:35:21;4.30;;;3.00;;
7013;SDS011;3547;50.774;12.918;2023-05-14T00:37:48;3.00;;;2.70;;
7013;SDS011;3547;50.774;12.918;2023-05-14T00:40:14;3.20;;;2.90;;
7013;SDS011;3547;50.774;12.918;2023-05-14T00:42:41;3.77;;;3.07;;
7013;SDS011;3547;50.774;12.918;2023-05-14T00:45:07;3.63;;;3.17;;
7013;SDS011;3547;50.774;12.918;2023-05-14T00:47:34;4.50;;;3.33;;
7013;SDS011;3547;50.774;12.918;2023-05-14T00:50:01;9.73;;;3.27;;
7013;SDS011;3547;50.774;12.918;2023-05-14T00:52:28;3.60;;;3.30;;
7013;SDS011;3547;50.774;12.918;2023-05-14T00:54:55;3.63;;;3.10;;
7013;SDS011;3547;50.774;12.918;2023-05-14T00:57:21;5.77;;;3.13;;
7013;SDS011;3547;50.774;12.918;2023-05-14T00:59:48;3.77;;;3.43;;
7013;SDS011;3547;50.774;12.918;2023-05-14T01:02:14;3.80;;;3.00;;
7013;SDS011;3547;50.774;12.918;2023-05-14T01:04:40;3.47;;;2.90;;
7013;SDS011;3547;50.774;12.918;2023-05-14T01:07:24;6.20;;;3.63;;
7013;SDS011;3547;50.774;12.918;2023-05-14T01:10:07;5.40;;;3.43;;
7013;SDS011;3547;50.774;12.918;2023-05-14T01:12:59;2.70;;;2.50;;
7013;SDS011;3547;50.774;12.918;2023-05-14T01:15:30;3.90;;;3.30;;
7013;SDS011;3547;50.774;12.918;2023-05-14T01:17:58;4.43;;;3.13;;
7013;SDS011;3547;50.774;12.918;2023-05-14T01:20:33;3.37;;;3.07;;
7013;SDS011;3547;50.774;12.918;2023-05-14T01:23:01;5.50;;;3.40;;
7013;SDS011;3547;50.774;12.918;2023-05-14T01:25:28;3.17;;;2.83;;
7013;SDS011;3547;50.774;12.918;2023-05-14T01:30:42;3.33;;;3.03;;
7013;SDS011;3547;50.774;12.918;2023-05-14T01:33:17;3.47;;;3.17;;
7013;SDS011;3547;50.774;12.918;2023-05-14T01:35:46;4.03;;;3.03;;
7013;SDS011;3547;50.774;12.918;2023-05-14T01:38:15;3.93;;;3.07;;
7013;SDS011;3547;50.774;12.918;2023-05-14T01:40:43;4.10;;;3.10;;
7013;SDS011;3547;50.774;12.918;2023-05-14T01:43:11;3.10;;;2.80;;
7013;SDS011;3547;50.774;12.918;2023-05-14T01:45:37;4.27;;;3.10;;
7013;SDS011;3547;50.774;12.918;2023-05-14T01:48:04;3.87;;;3.10;;
7013;SDS011;3547;50.774;12.918;2023-05-14T01:50:30;3.60;;;3.20;;
7013;SDS011;3547;50.774;12.918;2023-05-14T01:52:56;3.40;;;2.93;;
7013;SDS011;3547;50.774;12.918;2023-05-14T01:55:22;3.30;;;2.90;;
7013;SDS011;3547;50.774;12.918;2023-05-14T01:57:49;6.67;;;3.60;;
7013;SDS011;3547;50.774;12.918;2023-05-14T02:00:16;4.37;;;3.37;;
7013;SDS011;3547;50.774;12.918;2023-05-14T02:02:42;5.13;;;3.50;;
7013;SDS011;3547;50.774;12.918;2023-05-14T02:05:12;4.03;;;3.63;;
7013;SDS011;3547;50.774;12.918;2023-05-14T02:07:38;3.30;;;2.97;;
7013;SDS011;3547;50.774;12.918;2023-05-14T02:10:05;4.17;;;3.00;;
7013;SDS011;3547;50.774;12.918;2023-05-14T02:12:35;4.50;;;3.30;;
7013;SDS011;3547;50.774;12.918;2023-05-14T02:15:01;3.80;;;3.40;;
7013;SDS011;3547;50.774;12.918;2023-05-14T02:17:28;3.90;;;3.43;;
7013;SDS011;3547;50.774;12.918;2023-05-14T02:19:54;4.63;;;3.47;;
7013;SDS011;3547;50.774;12.918;2023-05-14T02:22:20;4.47;;;3.13;;
7013;SDS011;3547;50.774;12.918;2023-05-14T02:24:47;4.37;;;3.60;;
7013;SDS011;3547;50.774;12.918;2023-05-14T02:27:14;5.17;;;3.80;;
7013;SDS011;3547;50.774;12.918;2023-05-14T02:29:40;4.07;;;3.67;;
7013;SDS011;3547;50.774;12.918;2023-05-14T02:32:06;6.57;;;3.57;;
7013;SDS011;3547;50.774;12.918;2023-05-14T02:34:33;3.23;;;2.90;;
7013;SDS011;3547;50.774;12.918;2023-05-14T02:36:59;3.53;;;3.23;;
7013;SDS011;3547;50.774;12.918;2023-05-14T02:39:25;6.77;;;3.60;;
7013;SDS011;3547;50.774;12.918;2023-05-14T02:41:51;4.23;;;3.50;;
7013;SDS011;3547;50.774;12.918;2023-05-14T02:44:17;3.73;;;3.40;;
7013;SDS011;3547;50.774;12.918;2023-05-14T02:46:43;4.30;;;3.70;;
7013;SDS011;3547;50.774;12.918;2023-05-14T02:49:10;6.87;;;3.60;;
7013;SDS011;3547;50.774;12.918;2023-05-14T02:51:36;8.13;;;3.43;;
7013;SDS011;3547;50.774;12.918;2023-05-14T02:54:02;4.37;;;3.57;;
7013;SDS011;3547;50.774;12.918;2023-05-14T02:56:28;6.33;;;3.90;;
7013;SDS011;3547;50.774;12.918;2023-05-14T02:58:54;3.50;;;2.97;;
7013;SDS011;3547;50.774;12.918;2023-05-14T03:01:20;3.80;;;3.47;;
7013;SDS011;3547;50.774;12.918;2023-05-14T03:03:46;4.97;;;3.67;;
7013;SDS011;3547;50.774;12.918;2023-05-14T03:06:13;3.73;;;3.43;;
7013;SDS011;3547;50.774;12.918;2023-05-14T03:08:39;4.33;;;3.50;;
7013;SDS011;3547;50.774;12.918;2023-05-14T03:11:06;3.80;;;3.33;;
7013;SDS011;3547;50.774;12.918;2023-05-14T03:13:32;4.10;;;3.10;;
7013;SDS011;3547;50.774;12.918;2023-05-14T03:15:58;4.40;;;3.90;;
7013;SDS011;3547;50.774;12.918;2023-05-14T03:18:24;4.50;;;3.57;;
7013;SDS011;3547;50.774;12.918;2023-05-14T03:20:52;4.47;;;3.67;;
7013;SDS011;3547;50.774;12.918;2023-05-14T03:23:18;4.93;;;3.40;;
7013;SDS011;3547;50.774;12.918;2023-05-14T03:25:45;7.13;;;3.60;;
7013;SDS011;3547;50.774;12.918;2023-05-14T03:28:11;3.77;;;3.37;;
7013;SDS011;3547;50.774;12.918;2023-05-14T03:30:37;3.43;;;3.03;;
7013;SDS011;3547;50.774;12.918;2023-05-14T03:33:03;10.50;;;3.63;;
7013;SDS011;3547;50.774;12.918;2023-05-14T03:35:29;5.93;;;3.93;;
7013;SDS011;3547;50.774;12.918;2023-05-14T03:37:56;6.33;;;4.10;;
7013;SDS011;3547;50.774;12.918;2023-05-14T03:40:24;4.03;;;3.63;;
7013;SDS011;3547;50.774;12.918;2023-05-14T03:42:50;5.40;;;3.47;;
7013;SDS011;3547;50.774;12.918;2023-05-14T03:45:16;5.07;;;3.63;;
7013;SDS011;3547;50.774;12.918;2023-05-14T03:47:42;5.47;;;3.40;;
7013;SDS011;3547;50.774;12.918;2023-05-14T03:50:08;4.00;;;3.33;;
7013;SDS011;3547;50.774;12.918;2023-05-14T03:52:34;5.60;;;3.50;;
7013;SDS011;3547;50.774;12.918;2023-05-14T03:55:01;3.90;;;3.60;;
7013;SDS011;3547;50.774;12.918;2023-05-14T03:57:27;4.17;;;3.50;;
7013;SDS011;3547;50.774;12.918;2023-05-14T03:59:53;3.97;;;3.47;;
7013;SDS011;3547;50.774;12.918;2023-05-14T04:02:19;4.57;;;3.83;;
7013;SDS011;3547;50.774;12.918;2023-05-14T04:04:46;4.93;;;4.07;;
7013;SDS011;3547;50.774;12.918;2023-05-14T04:07:12;5.30;;;3.97;;
7013;SDS011;3547;50.774;12.918;2023-05-14T04:09:38;5.97;;;4.00;;
7013;SDS011;3547;50.774;12.918;2023-05-14T04:12:04;5.50;;;3.53;;
7013;SDS011;3547;50.774;12.918;2023-05-14T04:14:31;4.10;;;3.67;;
7013;SDS011;3547;50.774;12.918;2023-05-14T04:16:57;4.47;;;3.67;;
7013;SDS011;3547;50.774;12.918;2023-05-14T04:19:23;3.70;;;3.40;;
7013;SDS011;3547;50.774;12.918;2023-05-14T04:21:49;5.13;;;3.60;;
7013;SDS011;3547;50.774;12.918;2023-05-14T04:24:15;4.90;;;4.17;;
7013;SDS011;3547;50.774;12.918;2023-05-14T04:26:41;4.30;;;3.77;;
7013;SDS011;3547;50.774;12.918;2023-05-14T04:29:08;5.40;;;3.83;;
7013;SDS011;3547;50.774;12.918;2023-05-14T04:31:34;4.23;;;3.83;;
7013;SDS011;3547;50.774;12.918;2023-05-14T04:34:00;5.53;;;4.03;;
7013;SDS011;3547;50.774;12.918;2023-05-14T04:36:26;4.27;;;3.87;;
7013;SDS011;3547;50.774;12.918;2023-05-14T04:38:52;7.13;;;4.40;;
7013;SDS011;3547;50.774;12.918;2023-05-14T04:41:18;6.13;;;4.27;;
7013;SDS011;3547;50.774;12.918;2023-05-14T04:43:45;5.43;;;4.50;;
7013;SDS011;3547;50.774;12.918;2023-05-14T04:46:14;6.93;;;5.13;;
7013;SDS011;3547;50.774;12.918;2023-05-14T04:48:40;6.07;;;5.10;;
7013;SDS011;3547;50.774;12.918;2023-05-14T04:51:06;6.13;;;4.83;;
7013;SDS011;3547;50.774;12.918;2023-05-14T04:53:33;6.20;;;4.93;;
7013;SDS011;3547;50.774;12.918;2023-05-14T04:55:59;7.17;;;5.23;;
7013;SDS011;3547;50.774;12.918;2023-05-14T04:58:25;7.90;;;5.60;;
7013;SDS011;3547;50.774;12.918;2023-05-14T05:00:53;7.07;;;4.97;;
7013;SDS011;3547;50.774;12.918;2023-05-14T05:03:19;6.47;;;5.20;;
7013;SDS011;3547;50.774;12.918;2023-05-14T05:05:45;6.37;;;5.03;;
7013;SDS011;3547;50.774;12.918;2023-05-14T05:08:12;7.10;;;5.40;;
7013;SDS011;3547;50.774;12.918;2023-05-14T05:10:38;6.23;;;4.63;;
7013;SDS011;3547;50.774;12.918;2023-05-14T05:13:04;4.80;;;4.13;;
7013;SDS011;3547;50.774;12.918;2023-05-14T05:15:30;5.90;;;5.00;;
7013;SDS011;3547;50.774;12.918;2023-05-14T05:17:56;6.10;;;4.97;;
7013;SDS011;3547;50.774;12.918;2023-05-14T05:20:22;7.40;;;5.10;;
7013;SDS011;3547;50.774;12.918;2023-05-14T05:22:49;6.03;;;4.50;;
7013;SDS011;3547;50.774;12.918;2023-05-14T05:25:16;5.50;;;4.67;;
7013;SDS011;3547;50.774;12.918;2023-05-14T05:27:42;5.73;;;4.27;;
7013;SDS011;3547;50.774;12.918;2023-05-14T05:30:08;6.23;;;4.47;;
7013;SDS011;3547;50.774;12.918;2023-05-14T05:32:35;6.47;;;4.60;;
7013;SDS011;3547;50.774;12.918;2023-05-14T05:35:01;5.57;;;4.60;;
7013;SDS011;3547;50.774;12.918;2023-05-14T05:37:28;6.43;;;5.33;;
7013;SDS011;3547;50.774;12.918;2023-05-14T05:39:55;6.30;;;4.37;;
7013;SDS011;3547;50.774;12.918;2023-05-14T05:42:21;9.63;;;4.93;;
7013;SDS011;3547;50.774;12.918;2023-05-14T05:44:47;6.03;;;4.30;;
7013;SDS011;3547;50.774;12.918;2023-05-14T05:47:13;6.63;;;5.37;;
7013;SDS011;3547;50.774;12.918;2023-05-14T05:49:40;6.40;;;4.43;;
7013;SDS011;3547;50.774;12.918;2023-05-14T05:52:06;4.90;;;4.10;;
7013;SDS011;3547;50.774;12.918;2023-05-14T05:54:32;5.13;;;3.93;;
7013;SDS011;3547;50.774;12.918;2023-05-14T05:56:59;6.67;;;4.60;;
7013;SDS011;3547;50.774;12.918;2023-05-14T05:59:25;5.53;;;3.80;;
7013;SDS011;3547;50.774;12.918;2023-05-14T06:01:51;5.37;;;4.17;;
7013;SDS011;3547;50.774;12.918;2023-05-14T06:04:18;6.33;;;4.00;;
7013;SDS011;3547;50.774;12.918;2023-05-14T06:06:44;4.40;;;3.70;;
7013;SDS011;3547;50.774;12.918;2023-05-14T06:09:10;4.43;;;3.90;;
7013;SDS011;3547;50.774;12.918;2023-05-14T06:11:37;4.90;;;3.40;;
7013;SDS011;3547;50.774;12.918;2023-05-14T06:14:03;4.97;;;3.80;;
7013;SDS011;3547;50.774;12.918;2023-05-14T06:16:30;3.90;;;3.47;;
7013;SDS011;3547;50.774;12.918;2023-05-14T06:18:56;3.90;;;3.53;;
7013;SDS011;3547;50.774;12.918;2023-05-14T06:21:22;4.43;;;3.67;;
7013;SDS011;3547;50.774;12.918;2023-05-14T06:23:48;3.97;;;3.13;;
7013;SDS011;3547;50.774;12.918;2023-05-14T06:26:14;3.60;;;3.00;;
7013;SDS011;3547;50.774;12.918;2023-05-14T06:28:40;3.90;;;2.97;;
7013;SDS011;3547;50.774;12.918;2023-05-14T06:31:07;3.83;;;2.70;;
7013;SDS011;3547;50.774;12.918;2023-05-14T06:33:33;3.90;;;3.17;;
7013;SDS011;3547;50.774;12.918;2023-05-14T06:35:59;3.60;;;2.60;;
7013;SDS011;3547;50.774;12.918;2023-05-14T06:38:28;4.70;;;3.00;;
7013;SDS011;3547;50.774;12.918;2023-05-14T06:40:54;3.40;;;3.00;;
7013;SDS011;3547;50.774;12.918;2023-05-14T06:43:21;4.17;;;3.10;;
7013;SDS011;3547;50.774;12.918;2023-05-14T06:45:47;2.87;;;2.67;;
7013;SDS011;3547;50.774;12.918;2023-05-14T06:48:17;3.80;;;2.80;;
7013;SDS011;3547;50.774;12.918;2023-05-14T06:50:47;3.30;;;2.97;;
7013;SDS011;3547;50.774;12.918;2023-05-14T06:53:14;3.33;;;2.50;;
7013;SDS011;3547;50.774;12.918;2023-05-14T06:55:40;2.97;;;2.67;;
7013;SDS011;3547;50.774;12.918;2023-05-14T06:58:07;2.97;;;2.67;;
7013;SDS011;3547;50.774;12.918;2023-05-14T07:00:34;3.33;;;2.80;;
7013;SDS011;3547;50.774;12.918;2023-05-14T07:03:00;3.00;;;2.58;;
7013;SDS011;3547;50.774;12.918;2023-05-14T07:05:26;6.90;;;3.15;;
7013;SDS011;3547;50.774;12.918;2023-05-14T07:07:53;4.47;;;2.58;;
7013;SDS011;3547;50.774;12.918;2023-05-14T07:10:19;3.13;;;2.80;;
7013;SDS011;3547;50.774;12.918;2023-05-14T07:12:45;3.20;;;2.90;;
7013;SDS011;3547;50.774;12.918;2023-05-14T07:15:12;3.05;;;2.75;;
7013;SDS011;3547;50.774;12.918;2023-05-14T07:17:38;3.03;;;2.72;;
7013;SDS011;3547;50.774;12.918;2023-05-14T07:20:05;8.05;;;2.40;;
7013;SDS011;3547;50.774;12.918;2023-05-14T07:22:31;3.40;;;2.90;;
7013;SDS011;3547;50.774;12.918;2023-05-14T07:24:57;2.97;;;2.42;;
7013;SDS011;3547;50.774;12.918;2023-05-14T07:27:24;3.15;;;2.70;;
7013;SDS011;3547;50.774;12.918;2023-05-14T07:29:50;3.05;;;2.75;;
7013;SDS011;3547;50.774;12.918;2023-05-14T07:32:16;2.72;;;2.47;;
7013;SDS011;3547;50.774;12.918;2023-05-14T07:34:42;2.33;;;2.10;;
7013;SDS011;3547;50.774;12.918;2023-05-14T07:37:11;2.17;;;2.00;;
7013;SDS011;3547;50.774;12.918;2023-05-14T07:39:38;2.83;;;2.55;;
7013;SDS011;3547;50.774;12.918;2023-05-14T07:42:06;2.33;;;2.10;;
7013;SDS011;3547;50.774;12.918;2023-05-14T07:44:32;2.17;;;1.88;;
7013;SDS011;3547;50.774;12.918;2023-05-14T07:46:59;2.38;;;2.15;;
7013;SDS011;3547;50.774;12.918;2023-05-14T07:49:25;3.20;;;2.30;;
7013;SDS011;3547;50.774;12.918;2023-05-14T07:51:51;2.65;;;2.45;;
7013;SDS011;3547;50.774;12.918;2023-05-14T07:54:17;2.72;;;2.28;;
7013;SDS011;3547;50.774;12.918;2023-05-14T07:56:44;2.50;;;2.30;;
7013;SDS011;3547;50.774;12.918;2023-05-14T07:59:10;2.40;;;2.20;;
7013;SDS011;3547;50.774;12.918;2023-05-14T08:01:36;2.33;;;1.88;;
7013;SDS011;3547;50.774;12.918;2023-05-14T08:04:02;4.75;;;2.08;;
7013;SDS011;3547;50.774;12.918;2023-05-14T08:06:28;2.53;;;2.30;;
7013;SDS011;3547;50.774;12.918;2023-05-14T08:08:55;2.15;;;1.80;;
7013;SDS011;3547;50.774;12.918;2023-05-14T08:11:21;2.75;;;2.22;;
7013;SDS011;3547;50.774;12.918;2023-05-14T08:13:47;2.53;;;2.30;;
7013;SDS011;3547;50.774;12.918;2023-05-14T08:16:13;4.43;;;2.95;;
7013;SDS011;3547;50.774;12.918;2023-05-14T08:18:39;4.43;;;2.28;;
7013;SDS011;3547;50.774;12.918;2023-05-14T08:21:06;2.20;;;2.00;;
7013;SDS011;3547;50.774;12.918;2023-05-14T08:23:32;2.88;;;2.45;;
7013;SDS011;3547;50.774;12.918;2023-05-14T08:25:59;2.15;;;1.95;;
7013;SDS011;3547;50.774;12.918;2023-05-14T08:28:25;4.40;;;2.30;;
7013;SDS011;3547;50.774;12.918;2023-05-14T08:30:51;2.67;;;1.73;;
7013;SDS011;3547;50.774;12.918;2023-05-14T08:33:18;4.82;;;2.42;;
7013;SDS011;3547;50.774;12.918;2023-05-14T08:35:44;2.65;;;2.08;;
7013;SDS011;3547;50.774;12.918;2023-05-14T08:38:10;2.15;;;1.95;;
7013;SDS011;3547;50.774;12.918;2023-05-14T08:40:36;3.85;;;2.40;;
7013;SDS011;3547;50.774;12.918;2023-05-14T08:43:02;2.55;;;2.05;;
7013;SDS011;3547;50.774;12.918;2023-05-14T08:45:30;2.33;;;2.13;;
7013;SDS011;3547;50.774;12.918;2023-05-14T08:47:58;2.15;;;1.95;;
7013;SDS011;3547;50.774;12.918;2023-05-14T08:50:29;2.67;;;2.45;;
7013;SDS011;3547;50.774;12.918;2023-05-14T08:52:56;2.63;;;2.42;;
7013;SDS011;3547;50.774;12.918;2023-05-14T08:55:22;6.55;;;3.00;;
7013;SDS011;3547;50.774;12.918;2023-05-14T08:57:48;3.05;;;2.60;;
7013;SDS011;3547;50.774;12.918;2023-05-14T09:00:14;3.75;;;2.45;;
7013;SDS011;3547;50.774;12.918;2023-05-14T09:02:41;3.65;;;2.80;;
7013;SDS011;3547;50.774;12.918;2023-05-14T09:05:09;4.45;;;2.80;;
7013;SDS011;3547;50.774;12.918;2023-05-14T09:07:35;2.85;;;2.53;;
7013;SDS011;3547;50.774;12.918;2023-05-14T09:10:01;3.63;;;2.78;;
7013;SDS011;3547;50.774;12.918;2023-05-14T09:12:28;3.05;;;2.65;;
7013;SDS011;3547;50.774;12.918;2023-05-14T09:14:54;2.88;;;2.58;;
7013;SDS011;3547;50.774;12.918;2023-05-14T09:17:21;2.90;;;2.50;;
7013;SDS011;3547;50.774;12.918;2023-05-14T09:19:50;3.50;;;3.17;;
7013;SDS011;3547;50.774;12.918;2023-05-14T09:22:18;4.93;;;3.63;;
7013;SDS011;3547;50.774;12.918;2023-05-14T09:24:44;6.28;;;3.35;;
7013;SDS011;3547;50.774;12.918;2023-05-14T09:27:16;4.22;;;2.92;;
7013;SDS011;3547;50.774;12.918;2023-05-14T09:29:46;4.45;;;3.05;;
7013;SDS011;3547;50.774;12.918;2023-05-14T09:32:13;3.85;;;3.50;;
7013;SDS011;3547;50.774;12.918;2023-05-14T09:34:39;5.15;;;3.53;;
7013;SDS011;3547;50.774;12.918;2023-05-14T09:37:06;3.95;;;3.55;;
7013;SDS011;3547;50.774;12.918;2023-05-14T09:39:34;3.60;;;3.17;;
7013;SDS011;3547;50.774;12.918;2023-05-14T09:42:02;4.97;;;3.58;;
7013;SDS011;3547;50.774;12.918;2023-05-14T09:44:28;4.20;;;3.25;;
7013;SDS011;3547;50.774;12.918;2023-05-14T09:46:54;3.85;;;3.45;;
7013;SDS011;3547;50.774;12.918;2023-05-14T09:49:21;4.40;;;3.70;;
7013;SDS011;3547;50.774;12.918;2023-05-14T09:51:47;4.47;;;3.55;;
7013;SDS011;3547;50.774;12.918;2023-05-14T09:54:14;3.45;;;3.15;;
7013;SDS011;3547;50.774;12.918;2023-05-14T09:56:41;3.65;;;3.13;;
7013;SDS011;3547;50.774;12.918;2023-05-14T09:59:08;4.78;;;3.83;;
7013;SDS011;3547;50.774;12.918;2023-05-14T10:01:35;4.43;;;3.75;;
7013;SDS011;3547;50.774;12.918;2023-05-14T10:04:03;4.07;;;3.35;;
7013;SDS011;3547;50.774;12.918;2023-05-14T10:06:32;3.58;;;3.28;;
7013;SDS011;3547;50.774;12.918;2023-05-14T10:09:02;4.30;;;3.75;;
7013;SDS011;3547;50.774;12.918;2023-05-14T10:11:34;4.20;;;3.28;;
7013;SDS011;3547;50.774;12.918;2023-05-14T10:14:07;3.58;;;3.00;;
7013;SDS011;3547;50.774;12.918;2023-05-14T10:16:52;7.50;;;2.67;;
7013;SDS011;3547;50.774;12.918;2023-05-14T10:19:20;3.03;;;2.67;;
7013;SDS011;3547;50.774;12.918;2023-05-14T10:21:54;3.08;;;2.75;;
7013;SDS011;3547;50.774;12.918;2023-05-14T10:24:21;2.95;;;2.72;;
7013;SDS011;3547;50.774;12.918;2023-05-14T10:26:50;2.40;;;2.20;;
7013;SDS011;3547;50.774;12.918;2023-05-14T10:29:16;2.60;;;2.40;;
7013;SDS011;3547;50.774;12.918;2023-05-14T10:31:50;2.30;;;2.10;;
7013;SDS011;3547;50.774;12.918;2023-05-14T10:37:21;4.25;;;2.53;;
7013;SDS011;3547;50.774;12.918;2023-05-14T10:39:52;3.35;;;2.83;;
7013;SDS011;3547;50.774;12.918;2023-05-14T10:42:23;2.92;;;2.63;;
7013;SDS011;3547;50.774;12.918;2023-05-14T10:45:06;2.45;;;2.25;;
7013;SDS011;3547;50.774;12.918;2023-05-14T10:47:43;3.17;;;2.70;;
7013;SDS011;3547;50.774;12.918;2023-05-14T10:50:11;3.20;;;2.65;;
7013;SDS011;3547;50.774;12.918;2023-05-14T10:52:42;7.35;;;2.63;;
7013;SDS011;3547;50.774;12.918;2023-05-14T10:55:13;3.47;;;2.33;;
7013;SDS011;3547;50.774;12.918;2023-05-14T10:57:42;2.72;;;2.53;;
7013;SDS011;3547;50.774;12.918;2023-05-14T11:00:09;3.00;;;2.63;;
7013;SDS011;3547;50.774;12.918;2023-05-14T11:02:37;2.58;;;2.30;;
7013;SDS011;3547;50.774;12.918;2023-05-14T11:05:06;2.55;;;2.17;;
7013;SDS011;3547;50.774;12.918;2023-05-14T11:07:38;2.25;;;2.05;;
7013;SDS011;3547;50.774;12.918;2023-05-14T11:12:34;2.47;;;2.28;;
7013;SDS011;3547;50.774;12.918;2023-05-14T11:15:02;2.40;;;2.20;;
7013;SDS011;3547;50.774;12.918;2023-05-14T11:17:30;3.65;;;2.13;;
7013;SDS011;3547;50.774;12.918;2023-05-14T11:19:57;3.92;;;2.50;;
7013;SDS011;3547;50.774;12.918;2023-05-14T11:22:24;2.38;;;2.17;;
7013;SDS011;3547;50.774;12.918;2023-05-14T11:24:51;2.70;;;2.05;;
7013;SDS011;3547;50.774;12.918;2023-05-14T11:27:18;2.22;;;2.03;;
7013;SDS011;3547;50.774;12.918;2023-05-14T11:29:46;2.53;;;2.33;;
7013;SDS011;3547;50.774;12.918;2023-05-14T11:32:15;2.58;;;2.38;;
7013;SDS011;3547;50.774;12.918;2023-05-14T11:34:43;4.10;;;2.50;;
7013;SDS011;3547;50.774;12.918;2023-05-14T11:37:10;7.18;;;2.67;;
7013;SDS011;3547;50.774;12.918;2023-05-14T11:39:38;2.50;;;2.30;;
7013;SDS011;3547;50.774;12.918;2023-05-14T11:42:14;2.92;;;2.38;;
7013;SDS011;3547;50.774;12.918;2023-05-14T11:44:44;2.80;;;2.60;;
7013;SDS011;3547;50.774;12.918;2023-05-14T11:47:22;2.45;;;2.00;;
7013;SDS011;3547;50.774;12.918;2023-05-14T11:50:00;2.42;;;2.22;;
7013;SDS011;3547;50.774;12.918;2023-05-14T11:52:26;3.88;;;2.40;;
7013;SDS011;3547;50.774;12.918;2023-05-14T11:54:52;2.83;;;2.30;;
7013;SDS011;3547;50.774;12.918;2023-05-14T11:57:20;2.40;;;2.20;;
7013;SDS011;3547;50.774;12.918;2023-05-14T11:59:54;2.45;;;2.20;;
7013;SDS011;3547;50.774;12.918;2023-05-14T12:02:25;2.15;;;1.98;;
7013;SDS011;3547;50.774;12.918;2023-05-14T12:04:54;2.30;;;2.08;;
7013;SDS011;3547;50.774;12.918;2023-05-14T12:07:21;2.38;;;2.15;;
7013;SDS011;3547;50.774;12.918;2023-05-14T12:09:48;2.63;;;2.30;;
7013;SDS011;3547;50.774;12.918;2023-05-14T12:12:20;1.95;;;1.85;;
7013;SDS011;3547;50.774;12.918;2023-05-14T12:14:50;2.45;;;1.92;;
7013;SDS011;3547;50.774;12.918;2023-05-14T12:17:18;2.55;;;2.00;;
7013;SDS011;3547;50.774;12.918;2023-05-14T12:19:49;2.53;;;2.10;;
7013;SDS011;3547;50.774;12.918;2023-05-14T12:22:21;1.90;;;1.77;;
7013;SDS011;3547;50.774;12.918;2023-05-14T12:27:27;2.05;;;1.85;;
7013;SDS011;3547;50.774;12.918;2023-05-14T12:30:01;3.40;;;2.15;;
7013;SDS011;3547;50.774;12.918;2023-05-14T12:32:32;3.53;;;2.45;;
7013;SDS011;3547;50.774;12.918;2023-05-14T12:34:59;2.17;;;1.98;;
7013;SDS011;3547;50.774;12.918;2023-05-14T12:37:28;2.47;;;2.10;;
7013;SDS011;3547;50.774;12.918;2023-05-14T12:39:54;2.30;;;2.05;;
7013;SDS011;3547;50.774;12.918;2023-05-14T12:42:20;1.88;;;1.77;;
7013;SDS011;3547;50.774;12.918;2023-05-14T12:44:46;2.03;;;1.83;;
7013;SDS011;3547;50.774;12.918;2023-05-14T12:47:12;2.58;;;2.15;;
7013;SDS011;3547;50.774;12.918;2023-05-14T12:49:39;1.85;;;1.75;;
7013;SDS011;3547;50.774;12.918;2023-05-14T12:52:05;2.45;;;2.17;;
7013;SDS011;3547;50.774;12.918;2023-05-14T12:54:31;2.00;;;1.90;;
7013;SDS011;3547;50.774;12.918;2023-05-14T12:56:58;2.10;;;1.80;;
7013;SDS011;3547;50.774;12.918;2023-05-14T12:59:24;2.03;;;1.83;;
7013;SDS011;3547;50.774;12.918;2023-05-14T13:01:50;2.05;;;1.92;;
7013;SDS011;3547;50.774;12.918;2023-05-14T13:04:16;5.00;;;2.30;;
7013;SDS011;3547;50.774;12.918;2023-05-14T13:06:42;2.25;;;2.05;;
7013;SDS011;3547;50.774;12.918;2023-05-14T13:09:08;2.15;;;1.92;;
7013;SDS011;3547;50.774;12.918;2023-05-14T13:11:35;2.42;;;2.22;;
7013;SDS011;3547;50.774;12.918;2023-05-14T13:14:01;2.20;;;2.00;;
7013;SDS011;3547;50.774;12.918;2023-05-14T13:16:31;2.35;;;2.15;;
7013;SDS011;3547;50.774;12.918;2023-05-14T13:18:57;2.42;;;2.20;;
7013;SDS011;3547;50.774;12.918;2023-05-14T13:21:23;2.70;;;2.10;;
7013;SDS011;3547;50.774;12.918;2023-05-14T13:23:49;5.00;;;2.22;;
7013;SDS011;3547;50.774;12.918;2023-05-14T13:26:16;2.97;;;2.38;;
7013;SDS011;3547;50.774;12.918;2023-05-14T13:28:42;2.33;;;2.13;;
7013;SDS011;3547;50.774;12.918;2023-05-14T13:31:09;2.08;;;1.90;;
7013;SDS011;3547;50.774;12.918;2023-05-14T13:36:59;2.70;;;2.50;;
7013;SDS011;3547;50.774;12.918;2023-05-14T13:39:26;2.50;;;2.30;;
7013;SDS011;3547;50.774;12.918;2023-05-14T13:41:55;2.92;;;2.30;;
7013;SDS011;3547;50.774;12.918;2023-05-14T13:44:21;2.42;;;2.20;;
7013;SDS011;3547;50.774;12.918;2023-05-14T13:46:48;2.40;;;2.20;;
7013;SDS011;3547;50.774;12.918;2023-05-14T13:49:14;3.15;;;2.55;;
7013;SDS011;3547;50.774;12.918;2023-05-14T13:51:40;3.08;;;2.30;;
7013;SDS011;3547;50.774;12.918;2023-05-14T13:54:07;2.40;;;2.20;;
7013;SDS011;3547;50.774;12.918;2023-05-14T13:56:33;2.28;;;2.08;;
7013;SDS011;3547;50.774;12.918;2023-05-14T13:59:01;3.38;;;2.30;;
7013;SDS011;3547;50.774;12.918;2023-05-14T14:01:28;2.40;;;2.20;;
7013;SDS011;3547;50.774;12.918;2023-05-14T14:03:56;3.75;;;2.53;;
7013;SDS011;3547;50.774;12.918;2023-05-14T14:06:22;2.50;;;2.30;;
7013;SDS011;3547;50.774;12.918;2023-05-14T14:08:50;3.08;;;2.33;;
7013;SDS011;3547;50.774;12.918;2023-05-14T14:11:16;4.25;;;2.47;;
7013;SDS011;3547;50.774;12.918;2023-05-14T14:13:45;2.75;;;2.00;;
7013;SDS011;3547;50.774;12.918;2023-05-14T14:16:12;4.20;;;2.13;;
7013;SDS011;3547;50.774;12.918;2023-05-14T14:18:38;3.72;;;2.70;;
7013;SDS011;3547;50.774;12.918;2023-05-14T14:21:04;2.33;;;2.13;;
7013;SDS011;3547;50.774;12.918;2023-05-14T14:23:31;3.10;;;2.53;;
7013;SDS011;3547;50.774;12.918;2023-05-14T14:25:57;3.58;;;2.70;;
7013;SDS011;3547;50.774;12.918;2023-05-14T14:28:23;3.65;;;2.85;;
7013;SDS011;3547;50.774;12.918;2023-05-14T14:30:49;2.53;;;2.33;;
7013;SDS011;3547;50.774;12.918;2023-05-14T14:33:15;2.20;;;2.00;;
7013;SDS011;3547;50.774;12.918;2023-05-14T14:35:42;2.47;;;2.05;;
7013;SDS011;3547;50.774;12.918;2023-05-14T14:38:08;2.50;;;2.10;;
7013;SDS011;3547;50.774;12.918;2023-05-14T14:40:34;5.13;;;2.20;;
7013;SDS011;3547;50.774;12.918;2023-05-14T14:43:00;2.20;;;2.00;;
7013;SDS011;3547;50.774;12.918;2023-05-14T14:45:27;2.88;;;2.60;;
7013;SDS011;3547;50.774;12.918;2023-05-14T14:48:20;2.22;;;2.03;;
7013;SDS011;3547;50.774;12.918;2023-05-14T14:50:49;3.15;;;2.17;;
7013;SDS011;3547;50.774;12.918;2023-05-14T14:53:17;2.83;;;2.35;;
7013;SDS011;3547;50.774;12.918;2023-05-14T14:55:47;2.42;;;2.17;;
7013;SDS011;3547;50.774;12.918;2023-05-14T14:58:14;2.38;;;2.17;;
7013;SDS011;3547;50.774;12.918;2023-05-14T15:00:43;2.75;;;2.22;;
7013;SDS011;3547;50.774;12.918;2023-05-14T15:03:10;2.88;;;2.30;;
7013;SDS011;3547;50.774;12.918;2023-05-14T15:05:36;2.70;;;2.50;;
7013;SDS011;3547;50.774;12.918;2023-05-14T15:08:03;2.40;;;2.20;;
7013;SDS011;3547;50.774;12.918;2023-05-14T15:10:35;2.45;;;2.22;;
7013;SDS011;3547;50.774;12.918;2023-05-14T15:13:03;3.40;;;2.75;;
7013;SDS011;3547;50.774;12.918;2023-05-14T15:15:34;4.13;;;2.58;;
7013;SDS011;3547;50.774;12.918;2023-05-14T15:18:00;1.90;;;1.80;;
7013;SDS011;3547;50.774;12.918;2023-05-14T15:20:28;2.05;;;1.85;;
7013;SDS011;3547;50.774;12.918;2023-05-14T15:23:30;2.42;;;2.22;;